createdAt,value
2023-05-21T00:00:25.321Z,15.73
2023-05-21T00:03:16.287Z,14.50
2023-05-21T00:05:47.160Z,14.80
2023-05-21T00:08:15.905Z,13.82
2023-05-21T00:10:44.254Z,14.00
2023-05-21T00:13:13.098Z,14.18
2023-05-21T00:15:41.522Z,14.70
2023-05-21T00:18:10.335Z,13.70
2023-05-21T00:20:41.595Z,14.90
2023-05-21T00:23:10.323Z,14.65
2023-05-21T00:25:38.536Z,13.85
2023-05-21T00:28:07.322Z,13.73
2023-05-21T00:30:35.795Z,14.70
2023-05-21T00:33:04.980Z,13.10
2023-05-21T00:35:35.336Z,13.88
2023-05-21T00:38:08.501Z,15.48
2023-05-21T00:40:37.130Z,14.63
2023-05-21T00:43:05.816Z,13.40
2023-05-21T00:45:36.727Z,15.32
2023-05-21T00:48:06.689Z,14.05
2023-05-21T00:50:36.119Z,14.40
2023-05-21T00:53:09.540Z,13.77
2023-05-21T00:55:38.491Z,14.05
2023-05-21T00:58:07.948Z,14.90
2023-05-21T01:00:37.452Z,14.50
2023-05-21T01:03:06.865Z,13.63
2023-05-21T01:05:35.616Z,14.07
2023-05-21T01:08:07.625Z,15.30
2023-05-21T01:10:36.363Z,15.55
2023-05-21T01:13:05.265Z,15.10
2023-05-21T01:15:34.125Z,14.98
2023-05-21T01:18:03.109Z,13.82
2023-05-21T01:20:32.353Z,14.15
2023-05-21T01:23:03.179Z,13.75
2023-05-21T01:25:31.627Z,14.32
2023-05-21T01:28:00.974Z,14.57
2023-05-21T01:30:29.475Z,13.23
2023-05-21T01:33:03.466Z,14.27
2023-05-21T01:35:35.099Z,14.63
2023-05-21T01:38:15.147Z,14.05
2023-05-21T01:40:48.793Z,14.07
2023-05-21T01:43:19.260Z,15.32
2023-05-21T01:45:49.766Z,15.23
2023-05-21T01:48:19.754Z,14.25
2023-05-21T01:50:50.426Z,14.60
2023-05-21T01:53:20.957Z,14.80
2023-05-21T01:55:49.366Z,14.55
2023-05-21T01:58:18.547Z,15.88
2023-05-21T02:00:46.899Z,14.80
2023-05-21T02:03:16.493Z,15.18
2023-05-21T02:05:45.149Z,15.00
2023-05-21T02:08:15.255Z,14.90
2023-05-21T02:10:44.991Z,14.75
2023-05-21T02:13:13.736Z,14.93
2023-05-21T02:15:41.985Z,15.27
2023-05-21T02:18:11.375Z,15.75
2023-05-21T02:20:39.874Z,15.50
2023-05-21T02:23:08.582Z,15.52
2023-05-21T02:25:37.351Z,14.52
2023-05-21T02:28:07.835Z,15.13
2023-05-21T02:30:36.526Z,15.10
2023-05-21T02:33:05.408Z,16.38
2023-05-21T02:35:35.180Z,14.70
2023-05-21T02:38:04.471Z,14.70
2023-05-21T02:40:33.124Z,15.30
2023-05-21T02:43:01.860Z,15.05
2023-05-21T02:45:34.320Z,15.18
2023-05-21T02:48:03.418Z,15.93
2023-05-21T02:50:35.954Z,15.20
2023-05-21T02:53:04.862Z,15.43
2023-05-21T02:55:33.587Z,15.20
2023-05-21T02:58:03.412Z,16.30
2023-05-21T03:00:33.413Z,14.95
2023-05-21T03:03:02.742Z,15.85
2023-05-21T03:05:31.209Z,14.80
2023-05-21T03:07:59.984Z,16.52
2023-05-21T03:10:28.549Z,15.60
2023-05-21T03:12:57.199Z,13.98
2023-05-21T03:15:25.682Z,15.77
2023-05-21T03:17:55.810Z,15.32
2023-05-21T03:20:24.839Z,15.05
2023-05-21T03:22:55.093Z,14.30
2023-05-21T03:25:25.330Z,16.15
2023-05-21T03:27:55.911Z,14.10
2023-05-21T03:30:46.425Z,13.50
2023-05-21T03:33:36.476Z,14.82
2023-05-21T03:36:16.501Z,14.25
2023-05-21T03:38:45.288Z,14.07
2023-05-21T03:41:14.020Z,13.43
2023-05-21T03:43:45.614Z,13.65
2023-05-21T03:46:13.890Z,13.07
2023-05-21T03:49:07.174Z,13.57
2023-05-21T03:51:38.350Z,13.52
2023-05-21T03:54:07.421Z,14.45
2023-05-21T03:56:37.913Z,13.07
2023-05-21T03:59:06.423Z,15.18
2023-05-21T04:01:34.984Z,15.85
2023-05-21T04:04:04.400Z,13.55
2023-05-21T04:06:34.373Z,12.77
2023-05-21T04:09:03.345Z,12.25
2023-05-21T04:11:32.325Z,14.70
2023-05-21T04:14:01.195Z,13.05
2023-05-21T04:16:30.009Z,12.57
2023-05-21T04:18:58.727Z,12.25
2023-05-21T04:21:28.509Z,11.77
2023-05-21T04:23:58.530Z,11.57
2023-05-21T04:26:48.122Z,11.23
2023-05-21T04:29:18.053Z,11.23
2023-05-21T04:31:46.812Z,12.38
2023-05-21T04:34:17.866Z,10.48
2023-05-21T04:36:46.375Z,11.32
2023-05-21T04:39:17.257Z,11.10
2023-05-21T04:41:45.689Z,17.10
2023-05-21T04:44:15.430Z,18.25
2023-05-21T04:46:46.810Z,12.35
2023-05-21T04:49:16.102Z,10.70
2023-05-21T04:51:45.130Z,11.23
2023-05-21T04:54:13.855Z,13.43
2023-05-21T04:56:44.327Z,12.43
2023-05-21T04:59:12.911Z,11.07
2023-05-21T05:01:41.227Z,11.35
2023-05-21T05:04:10.311Z,17.98
2023-05-21T05:06:38.704Z,12.02
2023-05-21T05:09:08.706Z,9.60
2023-05-21T05:11:37.529Z,9.75
2023-05-21T05:14:08.310Z,9.80
2023-05-21T05:16:37.097Z,9.48
2023-05-21T05:19:06.036Z,9.65
2023-05-21T05:21:34.657Z,10.20
2023-05-21T05:24:03.316Z,8.98
2023-05-21T05:26:33.394Z,9.02
2023-05-21T05:29:02.584Z,8.43
2023-05-21T05:31:32.486Z,9.23
2023-05-21T05:34:01.524Z,10.38
2023-05-21T05:36:31.413Z,8.85
2023-05-21T05:39:00.281Z,8.98
2023-05-21T05:41:29.127Z,8.85
2023-05-21T05:43:58.142Z,13.10
2023-05-21T05:46:31.933Z,9.77
2023-05-21T05:49:00.757Z,8.75
2023-05-21T05:51:30.134Z,8.82
2023-05-21T05:53:58.894Z,9.60
2023-05-21T05:56:27.713Z,9.27
2023-05-21T05:58:56.412Z,9.25
2023-05-21T06:01:26.252Z,8.68
2023-05-21T06:03:57.384Z,9.25
2023-05-21T06:06:25.946Z,8.63
2023-05-21T06:08:55.507Z,8.63
2023-05-21T06:11:23.770Z,7.95
2023-05-21T06:13:52.728Z,8.40
2023-05-21T06:16:21.305Z,8.20
2023-05-21T06:18:49.976Z,8.88
2023-05-21T06:21:19.921Z,11.63
2023-05-21T06:23:49.194Z,9.05
2023-05-21T06:26:19.117Z,7.88
2023-05-21T06:28:49.437Z,7.80
2023-05-21T06:31:17.917Z,7.85
2023-05-21T06:33:49.456Z,7.13
2023-05-21T06:36:19.505Z,7.82
2023-05-21T06:38:48.174Z,10.23
2023-05-21T06:41:16.552Z,9.10
2023-05-21T06:43:54.909Z,8.98
2023-05-21T06:46:41.999Z,7.20
2023-05-21T06:49:14.141Z,9.07
2023-05-21T06:51:44.659Z,7.68
2023-05-21T06:54:15.011Z,6.97
2023-05-21T06:56:43.686Z,7.03
2023-05-21T06:59:12.392Z,7.65
2023-05-21T07:01:42.688Z,7.60
2023-05-21T07:04:11.935Z,7.90
2023-05-21T07:06:41.940Z,8.38
2023-05-21T07:09:12.077Z,8.85
2023-05-21T07:11:40.852Z,7.70
2023-05-21T07:14:11.280Z,9.38
2023-05-21T07:16:40.314Z,8.88
2023-05-21T07:19:10.047Z,7.72
2023-05-21T07:21:38.713Z,8.02
2023-05-21T07:24:09.155Z,8.93
2023-05-21T07:26:41.955Z,8.10
2023-05-21T07:29:11.920Z,7.55
2023-05-21T07:31:40.919Z,8.60
2023-05-21T07:34:09.568Z,7.25
2023-05-21T07:36:38.046Z,7.75
2023-05-21T07:39:06.641Z,6.45
2023-05-21T07:41:35.172Z,7.45
2023-05-21T07:44:10.074Z,6.80
2023-05-21T07:46:42.627Z,6.72
2023-05-21T07:49:16.805Z,6.13
2023-05-21T07:51:46.957Z,6.43
2023-05-21T07:54:16.863Z,6.00
2023-05-21T07:56:46.193Z,5.63
2023-05-21T07:59:29.001Z,5.45
2023-05-21T08:01:57.709Z,6.68
2023-05-21T08:04:26.617Z,6.32
2023-05-21T08:06:55.217Z,6.18
2023-05-21T08:09:23.733Z,6.07
2023-05-21T08:11:52.222Z,5.95
2023-05-21T08:14:21.094Z,6.78
2023-05-21T08:16:51.545Z,6.50
2023-05-21T08:19:20.451Z,6.18
2023-05-21T08:21:52.076Z,6.20
2023-05-21T08:24:22.753Z,5.55
2023-05-21T08:26:51.255Z,5.43
2023-05-21T08:29:20.747Z,5.88
2023-05-21T08:31:50.482Z,6.15
2023-05-21T08:34:19.736Z,6.15
2023-05-21T08:36:56.104Z,6.40
2023-05-21T08:39:42.944Z,4.57
2023-05-21T08:42:32.908Z,6.00
2023-05-21T08:45:07.685Z,5.10
2023-05-21T08:47:38.006Z,9.13
2023-05-21T08:50:10.572Z,6.35
2023-05-21T08:52:39.625Z,5.38
2023-05-21T08:55:10.229Z,5.25
2023-05-21T08:57:44.324Z,5.32
2023-05-21T09:00:16.398Z,5.93
2023-05-21T09:02:46.829Z,5.32
2023-05-21T09:05:17.569Z,5.07
2023-05-21T09:07:52.710Z,4.97
2023-05-21T09:10:39.362Z,5.05
2023-05-21T09:13:08.458Z,5.53
2023-05-21T09:15:38.111Z,4.82
2023-05-21T09:18:10.053Z,5.43
2023-05-21T09:20:49.373Z,4.22
2023-05-21T09:23:20.921Z,4.38
2023-05-21T09:25:51.999Z,3.90
2023-05-21T09:28:28.923Z,4.38
2023-05-21T09:31:00.036Z,4.38
2023-05-21T09:33:30.677Z,4.18
2023-05-21T09:35:59.974Z,3.88
2023-05-21T09:38:34.803Z,5.00
2023-05-21T09:41:06.735Z,4.00
2023-05-21T09:43:37.281Z,3.78
2023-05-21T09:46:06.719Z,3.88
2023-05-21T09:48:38.532Z,4.38
2023-05-21T09:51:11.067Z,3.35
2023-05-21T09:53:45.465Z,4.03
2023-05-21T09:56:14.414Z,4.03
2023-05-21T09:58:45.112Z,4.90
2023-05-21T10:01:15.758Z,3.70
2023-05-21T10:03:50.672Z,4.35
2023-05-21T10:06:20.947Z,4.28
2023-05-21T10:08:54.262Z,3.33
2023-05-21T10:11:27.723Z,3.70
2023-05-21T10:14:01.190Z,3.92
2023-05-21T10:16:33.812Z,4.20
2023-05-21T10:19:05.212Z,5.32
2023-05-21T10:21:34.941Z,4.25
2023-05-21T10:24:04.265Z,4.22
2023-05-21T10:26:33.411Z,4.50
2023-05-21T10:29:03.530Z,3.58
2023-05-21T10:31:33.772Z,3.60
2023-05-21T10:34:06.076Z,3.83
2023-05-21T10:36:37.276Z,3.28
2023-05-21T10:39:09.591Z,3.40
2023-05-21T10:41:52.377Z,4.82
2023-05-21T10:44:33.484Z,4.05
2023-05-21T10:47:36.277Z,4.75
2023-05-21T10:50:23.386Z,3.45
2023-05-21T10:53:03.205Z,3.78
2023-05-21T10:55:43.078Z,3.63
2023-05-21T10:58:39.421Z,4.10
2023-05-21T11:01:09.003Z,3.70
2023-05-21T11:03:38.744Z,4.25
2023-05-21T11:06:08.689Z,4.85
2023-05-21T11:08:38.774Z,4.03
2023-05-21T11:11:07.275Z,4.18
2023-05-21T11:13:49.343Z,3.95
2023-05-21T11:16:18.502Z,4.47
2023-05-21T11:19:03.612Z,4.15
2023-05-21T11:21:36.007Z,4.28
2023-05-21T11:24:08.405Z,3.95
2023-05-21T11:27:06.874Z,5.85
2023-05-21T11:29:44.556Z,4.10
2023-05-21T11:32:17.556Z,4.05
2023-05-21T11:34:47.554Z,4.07
2023-05-21T11:37:30.564Z,4.30
2023-05-21T11:40:17.259Z,4.75
2023-05-21T11:42:50.806Z,3.83
2023-05-21T11:45:20.332Z,3.60
2023-05-21T11:47:49.455Z,4.22
2023-05-21T11:50:18.797Z,3.90
2023-05-21T11:52:49.617Z,3.92
2023-05-21T11:55:23.181Z,4.32
2023-05-21T11:57:55.064Z,3.80
2023-05-21T12:00:24.422Z,4.05
2023-05-21T12:02:55.781Z,3.90
2023-05-21T12:05:27.023Z,4.28
2023-05-21T12:07:58.440Z,3.53
2023-05-21T12:10:27.186Z,3.42
2023-05-21T12:12:57.366Z,3.80
2023-05-21T12:15:27.903Z,4.10
2023-05-21T12:17:57.169Z,4.03
2023-05-21T12:20:28.903Z,3.83
2023-05-21T12:23:00.753Z,4.72
2023-05-21T12:25:30.107Z,3.72
2023-05-21T12:27:59.013Z,4.25
2023-05-21T12:30:27.993Z,3.95
2023-05-21T12:33:00.340Z,3.53
2023-05-21T12:35:29.432Z,3.72
2023-05-21T12:38:01.237Z,3.90
2023-05-21T12:40:37.746Z,3.78
2023-05-21T12:43:06.959Z,3.90
2023-05-21T12:45:36.748Z,4.20
2023-05-21T12:48:05.585Z,3.55
2023-05-21T12:50:35.589Z,3.65
2023-05-21T12:53:05.945Z,3.95
2023-05-21T12:55:36.711Z,4.07
2023-05-21T12:58:10.361Z,3.65
2023-05-21T13:00:38.996Z,4.00
2023-05-21T13:03:07.912Z,3.40
2023-05-21T13:05:36.798Z,3.85
2023-05-21T13:08:06.665Z,3.70
2023-05-21T13:10:35.632Z,4.30
2023-05-21T13:13:04.139Z,3.47
2023-05-21T13:15:33.027Z,3.70
2023-05-21T13:18:01.760Z,3.88
2023-05-21T13:20:30.648Z,3.90
2023-05-21T13:22:58.912Z,4.18
2023-05-21T13:25:29.686Z,4.25
2023-05-21T13:27:59.001Z,4.07
2023-05-21T13:30:27.568Z,3.75
2023-05-21T13:32:56.302Z,3.80
2023-05-21T13:35:25.017Z,4.00
2023-05-21T13:37:53.432Z,3.50
2023-05-21T13:40:23.044Z,3.50
2023-05-21T13:42:52.762Z,3.45
2023-05-21T13:45:21.979Z,4.00
2023-05-21T13:47:50.523Z,3.75
2023-05-21T13:50:19.249Z,9.07
2023-05-21T13:52:47.826Z,4.60
2023-05-21T13:55:16.849Z,4.25
2023-05-21T13:57:45.986Z,3.88
2023-05-21T14:00:16.740Z,3.70
2023-05-21T14:02:45.652Z,3.55
2023-05-21T14:05:15.416Z,3.38
2023-05-21T14:07:43.780Z,3.85
2023-05-21T14:10:12.709Z,3.55
2023-05-21T14:12:42.082Z,3.83
2023-05-21T14:15:11.910Z,3.58
2023-05-21T14:17:42.450Z,3.72
2023-05-21T14:20:11.972Z,3.20
2023-05-21T14:22:40.351Z,3.55
2023-05-21T14:25:09.433Z,3.58
2023-05-21T14:27:38.748Z,3.90
2023-05-21T14:30:08.816Z,3.03
2023-05-21T14:32:37.200Z,3.00
2023-05-21T14:35:08.223Z,3.00
2023-05-21T14:37:36.468Z,3.15
2023-05-21T14:40:07.791Z,2.67
2023-05-21T14:42:36.573Z,3.20
2023-05-21T14:45:18.006Z,2.95
2023-05-21T14:47:48.189Z,3.13
2023-05-21T14:50:19.117Z,3.03
2023-05-21T14:52:47.486Z,3.28
2023-05-21T14:55:18.380Z,3.45
2023-05-21T14:57:46.856Z,2.95
2023-05-21T15:00:16.111Z,3.30
2023-05-21T15:02:44.840Z,2.60
2023-05-21T15:05:13.775Z,2.40
2023-05-21T15:07:43.628Z,2.47
2023-05-21T15:10:12.790Z,2.90
2023-05-21T15:12:41.520Z,5.28
2023-05-21T15:15:12.217Z,4.90
2023-05-21T15:17:41.089Z,3.30
2023-05-21T15:20:10.743Z,3.15
2023-05-21T15:22:39.548Z,3.28
2023-05-21T15:25:10.567Z,2.83
2023-05-21T15:27:38.830Z,2.70
2023-05-21T15:30:08.454Z,2.92
2023-05-21T15:32:37.014Z,3.08
2023-05-21T15:35:06.446Z,2.45
2023-05-21T15:37:34.842Z,3.33
2023-05-21T15:40:04.042Z,3.88
2023-05-21T15:42:33.822Z,3.38
2023-05-21T15:45:02.628Z,3.03
2023-05-21T15:47:30.822Z,4.03
2023-05-21T15:50:00.468Z,11.15
2023-05-21T15:52:29.109Z,6.20
2023-05-21T15:54:57.882Z,3.42
2023-05-21T15:57:26.205Z,3.50
2023-05-21T15:59:56.519Z,4.03
2023-05-21T16:02:24.891Z,3.45
2023-05-21T16:04:53.528Z,2.25
2023-05-21T16:07:23.967Z,3.15
2023-05-21T16:09:52.583Z,3.05
2023-05-21T16:12:21.012Z,3.22
2023-05-21T16:14:50.903Z,3.17
2023-05-21T16:17:20.640Z,3.10
2023-05-21T16:19:49.365Z,3.42
2023-05-21T16:22:17.836Z,3.25
2023-05-21T16:24:46.629Z,3.00
2023-05-21T16:27:15.058Z,3.40
2023-05-21T16:29:43.714Z,3.50
2023-05-21T16:32:13.872Z,3.30
2023-05-21T16:34:44.271Z,4.55
2023-05-21T16:37:12.700Z,3.72
2023-05-21T16:39:41.204Z,3.65
2023-05-21T16:42:09.523Z,3.17
2023-05-21T16:44:39.283Z,3.65
2023-05-21T16:47:07.833Z,4.25
2023-05-21T16:49:36.386Z,4.35
2023-05-21T16:52:06.489Z,3.70
2023-05-21T16:54:35.133Z,4.40
2023-05-21T16:57:03.490Z,3.70
2023-05-21T16:59:32.081Z,4.10
2023-05-21T17:02:00.985Z,5.30
2023-05-21T17:04:30.598Z,5.60
2023-05-21T17:06:58.902Z,5.10
2023-05-21T17:09:28.956Z,4.60
2023-05-21T17:11:57.280Z,4.70
2023-05-21T17:14:34.465Z,5.90
2023-05-21T17:17:03.886Z,4.60
2023-05-21T17:19:32.484Z,4.07
2023-05-21T17:22:01.030Z,5.35
2023-05-21T17:24:31.280Z,4.85
2023-05-21T17:26:59.527Z,4.68
2023-05-21T17:29:28.070Z,5.47
2023-05-21T17:31:56.684Z,5.10
2023-05-21T17:34:29.242Z,4.43
2023-05-21T17:36:58.356Z,3.70
2023-05-21T17:39:27.134Z,5.28
2023-05-21T17:41:57.575Z,5.03
2023-05-21T17:44:26.494Z,4.88
2023-05-21T17:46:56.441Z,4.75
2023-05-21T17:49:25.638Z,4.63
2023-05-21T17:51:54.768Z,9.13
2023-05-21T17:54:23.353Z,15.45
2023-05-21T17:56:51.580Z,11.25
2023-05-21T17:59:22.280Z,8.27
2023-05-21T18:01:50.615Z,11.80
2023-05-21T18:04:19.622Z,6.93
2023-05-21T18:06:48.183Z,5.80
2023-05-21T18:09:17.061Z,7.25
2023-05-21T18:11:45.612Z,7.03
2023-05-21T18:14:14.311Z,7.13
2023-05-21T18:16:45.237Z,7.95
2023-05-21T18:19:13.946Z,6.90
2023-05-21T18:21:42.162Z,5.75
2023-05-21T18:24:10.752Z,5.68
2023-05-21T18:26:39.214Z,5.90
2023-05-21T18:29:10.730Z,5.60
2023-05-21T18:31:39.182Z,5.05
2023-05-21T18:34:09.254Z,5.32
2023-05-21T18:36:40.023Z,4.38
2023-05-21T18:39:10.321Z,5.22
2023-05-21T18:41:39.511Z,4.68
2023-05-21T18:44:08.053Z,5.18
2023-05-21T18:46:37.638Z,5.40
2023-05-21T18:49:08.002Z,5.78
2023-05-21T18:51:36.688Z,5.43
2023-05-21T18:54:05.650Z,4.78
2023-05-21T18:56:34.003Z,4.57
2023-05-21T18:59:02.970Z,7.40
2023-05-21T19:01:31.552Z,4.47
2023-05-21T19:04:00.729Z,4.10
2023-05-21T19:06:31.401Z,4.55
2023-05-21T19:09:00.574Z,4.07
2023-05-21T19:11:34.271Z,4.47
2023-05-21T19:14:03.323Z,5.85
2023-05-21T19:16:32.142Z,9.85
2023-05-21T19:19:02.079Z,17.67
2023-05-21T19:21:38.208Z,17.88
2023-05-21T19:24:08.014Z,11.45
2023-05-21T19:26:36.289Z,9.85
2023-05-21T19:29:05.069Z,6.25
2023-05-21T19:31:34.977Z,6.20
2023-05-21T19:34:11.703Z,6.65
2023-05-21T19:36:58.337Z,4.40
2023-05-21T19:39:44.422Z,4.80
2023-05-21T19:42:13.208Z,4.97
2023-05-21T19:44:42.111Z,5.25
2023-05-21T19:47:10.549Z,12.32
2023-05-21T19:49:39.271Z,12.82
2023-05-21T19:52:10.351Z,10.82
2023-05-21T19:54:39.745Z,6.82
2023-05-21T19:57:09.636Z,5.80
2023-05-21T19:59:42.279Z,7.13
2023-05-21T20:02:15.153Z,4.93
2023-05-21T20:04:44.023Z,5.18
2023-05-21T20:07:14.253Z,4.97
2023-05-21T20:09:43.391Z,8.20
2023-05-21T20:12:11.918Z,10.40
2023-05-21T20:14:41.756Z,8.13
2023-05-21T20:17:10.385Z,5.38
2023-05-21T20:19:39.233Z,6.38
2023-05-21T20:22:07.682Z,6.22
2023-05-21T20:24:37.938Z,5.75
2023-05-21T20:27:07.223Z,5.90
2023-05-21T20:29:36.047Z,8.95
2023-05-21T20:32:06.304Z,6.70
2023-05-21T20:34:34.917Z,5.68
2023-05-21T20:37:03.343Z,5.05
2023-05-21T20:39:32.473Z,5.15
2023-05-21T20:42:02.360Z,4.70
2023-05-21T20:44:31.754Z,4.90
2023-05-21T20:47:01.698Z,4.45
2023-05-21T20:49:33.088Z,4.18
2023-05-21T20:52:01.866Z,5.03
2023-05-21T20:54:31.154Z,4.38
2023-05-21T20:57:00.170Z,3.92
2023-05-21T20:59:30.185Z,4.00
2023-05-21T21:01:58.931Z,4.03
2023-05-21T21:04:27.904Z,4.00
2023-05-21T21:06:56.373Z,4.22
2023-05-21T21:09:25.195Z,4.03
2023-05-21T21:11:53.494Z,3.47
2023-05-21T21:14:22.253Z,4.72
2023-05-21T21:16:51.976Z,4.05
2023-05-21T21:19:20.856Z,5.57
2023-05-21T21:21:49.249Z,7.95
2023-05-21T21:24:18.160Z,6.50
2023-05-21T21:26:46.376Z,4.88
2023-05-21T21:29:15.011Z,5.00
2023-05-21T21:31:44.479Z,7.05
2023-05-21T21:34:14.678Z,6.47
2023-05-21T21:36:42.976Z,5.05
2023-05-21T21:39:11.908Z,5.10
2023-05-21T21:41:41.596Z,4.60
2023-05-21T21:44:10.390Z,4.88
2023-05-21T21:46:39.096Z,4.78
2023-05-21T21:49:07.906Z,4.50
2023-05-21T21:51:37.976Z,4.32
2023-05-21T21:54:06.760Z,4.78
2023-05-21T21:56:35.494Z,8.73
2023-05-21T21:59:04.223Z,11.00
2023-05-21T22:01:32.586Z,6.38
2023-05-21T22:04:01.170Z,5.28
2023-05-21T22:06:29.914Z,4.95
2023-05-21T22:08:59.925Z,4.72
2023-05-21T22:11:29.161Z,5.13
2023-05-21T22:13:57.853Z,4.88
2023-05-21T22:16:26.263Z,6.10
2023-05-21T22:18:55.259Z,6.82
2023-05-21T22:21:27.074Z,6.80
2023-05-21T22:23:56.382Z,5.45
2023-05-21T22:26:26.188Z,6.38
2023-05-21T22:28:54.995Z,5.47
2023-05-21T22:31:23.486Z,5.15
2023-05-21T22:33:52.021Z,4.65
2023-05-21T22:36:21.138Z,5.03
2023-05-21T22:38:49.873Z,9.48
2023-05-21T22:41:18.422Z,6.55
2023-05-21T22:43:48.457Z,6.18
2023-05-21T22:46:17.360Z,5.28
2023-05-21T22:48:46.107Z,4.72
2023-05-21T22:51:15.171Z,4.40
2023-05-21T22:53:43.647Z,4.57
2023-05-21T22:56:11.825Z,5.20
2023-05-21T22:58:40.554Z,5.20
2023-05-21T23:01:10.150Z,4.68
2023-05-21T23:03:38.721Z,5.05
2023-05-21T23:06:07.538Z,5.15
2023-05-21T23:08:36.213Z,4.25
2023-05-21T23:11:04.664Z,4.20
2023-05-21T23:13:33.390Z,5.25
2023-05-21T23:16:01.829Z,4.65
2023-05-21T23:18:32.767Z,4.93
2023-05-21T23:21:02.048Z,4.82
2023-05-21T23:23:30.814Z,5.25
2023-05-21T23:25:59.279Z,5.15
2023-05-21T23:28:27.931Z,5.18
2023-05-21T23:30:56.269Z,5.68
2023-05-21T23:33:24.885Z,5.18
2023-05-21T23:35:54.565Z,4.53
2023-05-21T23:38:23.253Z,5.43
2023-05-21T23:40:51.797Z,4.38
2023-05-21T23:43:20.506Z,4.47
2023-05-21T23:45:48.743Z,5.13
2023-05-21T23:48:17.758Z,4.93
2023-05-21T23:50:46.082Z,5.30
2023-05-21T23:53:16.392Z,5.13
2023-05-21T23:55:45.062Z,5.75
2023-05-21T23:58:13.671Z,5.25
